Time;durP1;ratioP1;P1;durP2;ratioP2;P2;SDS_P1;SDS_P2;PMS_P1;PMS_P2;Temp;Humidity;BMP_temperature;BMP_pressure;BME280_temperature;BME280_humidity;BME280_pressure;Samples;Min_cycle;Max_cycle;Signal;HPM_P1;HPM_P2
2019/11/02 00:02:21;;;;;;;2.30;2.10;;;;;;;19.56;53.51;98969.80;;;;-49
2019/11/02 00:05:35;;;;;;;2.20;2.00;;;;;;;19.56;53.53;98961.59;;;;-48
2019/11/02 00:08:21;;;;;;;2.30;2.10;;;;;;;19.55;53.56;98956.22;;;;-49
2019/11/02 00:11:21;;;;;;;2.34;2.14;;;;;;;19.55;53.49;98949.42;;;;-49
2019/11/02 00:14:21;;;;;;;2.24;2.04;;;;;;;19.55;53.58;98950.70;;;;-49
2019/11/02 00:17:21;;;;;;;2.31;2.11;;;;;;;19.55;53.48;98954.62;;;;-49
2019/11/02 00:20:21;;;;;;;2.25;2.02;;;;;;;19.54;53.60;98957.20;;;;-50
2019/11/02 00:23:21;;;;;;;2.10;1.90;;;;;;;19.54;53.49;98948.56;;;;-50
2019/11/02 00:26:21;;;;;;;2.13;1.97;;;;;;;19.53;53.54;98940.61;;;;-50
2019/11/02 00:29:21;;;;;;;2.19;1.99;;;;;;;19.53;53.57;98930.90;;;;-50
2019/11/02 00:32:21;;;;;;;2.45;2.25;;;;;;;19.53;53.56;98932.98;;;;-50
2019/11/02 00:35:21;;;;;;;2.20;2.00;;;;;;;19.52;53.55;98927.52;;;;-49
2019/11/02 00:38:21;;;;;;;2.29;2.09;;;;;;;19.52;53.57;98914.88;;;;-50
2019/11/02 00:41:21;;;;;;;2.19;1.99;;;;;;;19.52;53.62;98907.51;;;;-49
2019/11/02 00:44:21;;;;;;;2.27;2.07;;;;;;;19.51;53.63;98906.08;;;;-49
2019/11/02 00:47:21;;;;;;;2.00;1.90;;;;;;;19.51;53.54;98900.31;;;;-49
2019/11/02 00:50:21;;;;;;;2.20;2.00;;;;;;;19.50;53.57;98888.65;;;;-50
2019/11/02 00:53:21;;;;;;;2.03;1.83;;;;;;;19.50;53.54;98885.90;;;;-50
2019/11/02 00:56:21;;;;;;;2.00;1.90;;;;;;;19.50;53.60;98885.23;;;;-49
2019/11/02 00:59:21;;;;;;;2.06;1.96;;;;;;;19.49;53.60;98883.70;;;;-49
2019/11/02 01:02:21;;;;;;;2.03;1.89;;;;;;;19.49;53.63;98884.27;;;;-49
2019/11/02 01:05:21;;;;;;;2.29;2.09;;;;;;;19.49;53.66;98874.80;;;;-49
2019/11/02 01:08:21;;;;;;;2.01;1.80;;;;;;;19.48;53.68;98874.55;;;;-50
2019/11/02 01:11:21;;;;;;;2.06;1.87;;;;;;;19.47;53.72;98870.34;;;;-49
2019/11/02 01:14:21;;;;;;;2.31;2.07;;;;;;;19.47;53.67;98869.34;;;;-50
2019/11/02 01:17:21;;;;;;;2.01;1.91;;;;;;;19.47;53.62;98864.91;;;;-49
2019/11/02 01:20:21;;;;;;;2.16;1.96;;;;;;;19.47;53.65;98866.66;;;;-50
2019/11/02 01:23:21;;;;;;;1.95;1.85;;;;;;;19.47;53.72;98866.49;;;;-50
2019/11/02 01:26:21;;;;;;;1.97;1.87;;;;;;;19.46;53.75;98859.38;;;;-50
2019/11/02 01:29:21;;;;;;;1.91;1.81;;;;;;;19.46;53.70;98849.16;;;;-49
2019/11/02 01:32:21;;;;;;;1.87;1.77;;;;;;;19.46;53.71;98846.05;;;;-49
2019/11/02 01:35:21;;;;;;;1.99;1.80;;;;;;;19.45;53.74;98843.02;;;;-49
2019/11/02 01:38:21;;;;;;;3.11;1.77;;;;;;;19.45;53.71;98842.00;;;;-50
2019/11/02 01:41:21;;;;;;;1.91;1.81;;;;;;;19.45;53.73;98835.58;;;;-49
2019/11/02 01:44:21;;;;;;;1.90;1.80;;;;;;;19.45;53.60;98832.06;;;;-49
2019/11/02 01:47:21;;;;;;;1.96;1.80;;;;;;;19.44;53.73;98828.59;;;;-49
2019/11/02 01:50:21;;;;;;;1.91;1.81;;;;;;;19.44;53.72;98823.67;;;;-49
2019/11/02 01:53:21;;;;;;;1.85;1.75;;;;;;;19.43;53.76;98822.58;;;;-50
2019/11/02 01:56:21;;;;;;;2.29;1.77;;;;;;;19.44;53.73;98818.56;;;;-50
2019/11/02 01:59:21;;;;;;;1.92;1.82;;;;;;;19.43;53.79;98813.59;;;;-49
2019/11/02 02:02:21;;;;;;;1.90;1.79;;;;;;;19.43;53.81;98799.70;;;;-49
2019/11/02 02:05:23;;;;;;;1.87;1.73;;;;;;;19.42;53.79;98795.99;;;;-49
2019/11/02 02:08:21;;;;;;;1.81;1.71;;;;;;;19.42;53.75;98793.15;;;;-49
2019/11/02 02:11:21;;;;;;;1.93;1.81;;;;;;;19.41;53.76;98788.47;;;;-49
2019/11/02 02:14:21;;;;;;;1.83;1.73;;;;;;;19.41;53.77;98787.70;;;;-49
2019/11/02 02:17:21;;;;;;;1.77;1.67;;;;;;;19.41;53.82;98783.42;;;;-50
2019/11/02 02:20:22;;;;;;;2.03;1.82;;;;;;;19.40;53.82;98774.89;;;;-50
2019/11/02 02:23:21;;;;;;;1.82;1.71;;;;;;;19.40;53.79;98767.00;;;;-50
2019/11/02 02:26:21;;;;;;;1.92;1.82;;;;;;;19.40;53.79;98766.42;;;;-50
2019/11/02 02:29:21;;;;;;;1.83;1.73;;;;;;;19.39;53.84;98769.02;;;;-50
2019/11/02 02:32:21;;;;;;;1.83;1.73;;;;;;;19.39;53.82;98766.00;;;;-49
2019/11/02 02:35:21;;;;;;;1.83;1.71;;;;;;;19.39;53.84;98756.56;;;;-49
2019/11/02 02:38:21;;;;;;;1.83;1.73;;;;;;;19.39;53.84;98746.75;;;;-50
2019/11/02 02:41:21;;;;;;;1.80;1.70;;;;;;;19.39;53.80;98742.97;;;;-50
2019/11/02 02:44:21;;;;;;;1.90;1.80;;;;;;;19.38;53.84;98740.71;;;;-50
2019/11/02 02:47:21;;;;;;;1.78;1.68;;;;;;;19.38;53.87;98736.19;;;;-49
2019/11/02 02:50:21;;;;;;;1.70;1.60;;;;;;;19.38;53.83;98737.45;;;;-50
2019/11/02 02:53:21;;;;;;;1.80;1.70;;;;;;;19.38;53.79;98731.23;;;;-49
2019/11/02 02:56:21;;;;;;;1.81;1.71;;;;;;;19.38;53.83;98732.94;;;;-50
2019/11/02 02:59:21;;;;;;;1.80;1.70;;;;;;;19.37;53.84;98731.80;;;;-49
2019/11/02 03:02:21;;;;;;;1.89;1.79;;;;;;;19.37;53.84;98720.67;;;;-49
2019/11/02 03:05:21;;;;;;;1.90;1.80;;;;;;;19.37;53.81;98728.41;;;;-50
2019/11/02 03:08:21;;;;;;;1.75;1.63;;;;;;;19.36;53.92;98728.05;;;;-49
2019/11/02 03:11:21;;;;;;;1.81;1.71;;;;;;;19.36;53.87;98726.70;;;;-50
2019/11/02 03:14:21;;;;;;;1.78;1.68;;;;;;;19.36;53.87;98717.14;;;;-49
2019/11/02 03:17:21;;;;;;;1.69;1.59;;;;;;;19.36;53.89;98722.19;;;;-49
2019/11/02 03:20:21;;;;;;;1.71;1.61;;;;;;;19.35;53.88;98721.24;;;;-49
2019/11/02 03:23:21;;;;;;;1.71;1.60;;;;;;;19.36;53.89;98722.83;;;;-50
2019/11/02 03:26:21;;;;;;;1.71;1.61;;;;;;;19.35;53.90;98729.34;;;;-49
2019/11/02 03:29:21;;;;;;;1.63;1.53;;;;;;;19.35;53.89;98728.27;;;;-49
2019/11/02 03:32:21;;;;;;;1.73;1.63;;;;;;;19.33;53.96;98730.84;;;;-49
2019/11/02 03:35:21;;;;;;;1.69;1.59;;;;;;;19.34;53.90;98727.48;;;;-49
2019/11/02 03:38:21;;;;;;;1.69;1.59;;;;;;;19.34;53.87;98731.00;;;;-49
2019/11/02 03:41:21;;;;;;;1.67;1.57;;;;;;;19.33;53.93;98726.83;;;;-50
2019/11/02 03:44:21;;;;;;;1.76;1.66;;;;;;;19.34;53.91;98728.48;;;;-49
2019/11/02 03:47:21;;;;;;;1.60;1.50;;;;;;;19.33;53.86;98718.13;;;;-50
2019/11/02 03:50:21;;;;;;;1.65;1.55;;;;;;;19.34;53.92;98716.21;;;;-49
2019/11/02 03:53:21;;;;;;;1.73;1.63;;;;;;;19.32;53.92;98706.86;;;;-49
2019/11/02 03:56:21;;;;;;;1.67;1.57;;;;;;;19.32;53.96;98708.06;;;;-50
2019/11/02 03:59:21;;;;;;;1.63;1.53;;;;;;;19.31;53.93;98707.95;;;;-49
2019/11/02 04:02:21;;;;;;;1.69;1.59;;;;;;;19.32;53.93;98704.63;;;;-50
2019/11/02 04:05:21;;;;;;;1.65;1.55;;;;;;;19.32;53.91;98702.54;;;;-50
2019/11/02 04:08:21;;;;;;;1.61;1.51;;;;;;;19.32;53.91;98705.63;;;;-49
2019/11/02 04:11:21;;;;;;;1.60;1.50;;;;;;;19.31;53.98;98708.11;;;;-50
2019/11/02 04:14:21;;;;;;;1.61;1.51;;;;;;;19.31;53.92;98704.51;;;;-49
2019/11/02 04:17:24;;;;;;;1.67;1.57;;;;;;;19.31;53.92;98704.20;;;;-49
2019/11/02 04:20:24;;;;;;;1.60;1.50;;;;;;;19.31;53.94;98703.67;;;;-49
2019/11/02 04:23:21;;;;;;;1.62;1.52;;;;;;;19.30;53.93;98695.55;;;;-50
2019/11/02 04:26:21;;;;;;;1.69;1.59;;;;;;;19.31;53.98;98694.23;;;;-50
2019/11/02 04:29:21;;;;;;;1.61;1.51;;;;;;;19.30;53.89;98694.21;;;;-50
2019/11/02 04:32:21;;;;;;;1.75;1.65;;;;;;;19.30;53.92;98687.59;;;;-49
2019/11/02 04:35:21;;;;;;;1.60;1.50;;;;;;;19.30;53.92;98688.70;;;;-50
2019/11/02 04:38:21;;;;;;;1.70;1.60;;;;;;;19.29;53.96;98683.48;;;;-49
2019/11/02 04:41:21;;;;;;;1.70;1.60;;;;;;;19.29;53.97;98688.27;;;;-50
2019/11/02 04:44:21;;;;;;;1.75;1.65;;;;;;;19.29;53.97;98682.82;;;;-50
2019/11/02 04:47:21;;;;;;;1.69;1.59;;;;;;;19.29;53.99;98683.89;;;;-49
2019/11/02 04:50:21;;;;;;;1.65;1.55;;;;;;;19.27;53.98;98685.73;;;;-49
2019/11/02 04:53:21;;;;;;;1.64;1.54;;;;;;;19.29;53.96;98687.34;;;;-49
2019/11/02 04:56:22;;;;;;;1.81;1.71;;;;;;;19.29;53.95;98677.86;;;;-50
2019/11/02 04:59:21;;;;;;;1.50;1.40;;;;;;;19.28;53.97;98671.91;;;;-49
2019/11/02 05:02:21;;;;;;;1.57;1.47;;;;;;;19.28;53.95;98663.05;;;;-50
2019/11/02 05:05:21;;;;;;;1.71;1.61;;;;;;;19.28;53.96;98654.69;;;;-50
2019/11/02 05:08:21;;;;;;;1.57;1.47;;;;;;;19.28;53.96;98651.17;;;;-49
2019/11/02 05:11:21;;;;;;;1.60;1.50;;;;;;;19.28;53.95;98645.41;;;;-50
2019/11/02 05:14:21;;;;;;;1.50;1.40;;;;;;;19.28;53.94;98635.19;;;;-50
2019/11/02 05:17:21;;;;;;;1.50;1.40;;;;;;;19.29;53.97;98632.34;;;;-49
2019/11/02 05:20:21;;;;;;;1.60;1.50;;;;;;;19.30;53.98;98632.45;;;;-50
2019/11/02 05:23:21;;;;;;;1.60;1.50;;;;;;;19.31;53.96;98630.46;;;;-49
2019/11/02 05:26:21;;;;;;;1.50;1.40;;;;;;;19.33;53.96;98631.57;;;;-50
2019/11/02 05:29:21;;;;;;;1.51;1.41;;;;;;;19.33;53.97;98630.83;;;;-50
2019/11/02 05:32:21;;;;;;;1.61;1.51;;;;;;;19.34;53.94;98626.39;;;;-50
2019/11/02 05:35:21;;;;;;;1.51;1.41;;;;;;;19.35;53.93;98625.59;;;;-50
2019/11/02 05:38:21;;;;;;;1.50;1.40;;;;;;;19.37;53.93;98622.02;;;;-50
2019/11/02 05:41:21;;;;;;;1.69;1.59;;;;;;;19.38;53.97;98615.77;;;;-49
2019/11/02 05:44:21;;;;;;;1.43;1.33;;;;;;;19.39;53.96;98613.27;;;;-50
2019/11/02 05:47:21;;;;;;;1.59;1.49;;;;;;;19.41;53.97;98619.23;;;;-49
2019/11/02 05:50:21;;;;;;;1.60;1.50;;;;;;;19.42;53.95;98621.02;;;;-49
2019/11/02 05:53:21;;;;;;;1.40;1.30;;;;;;;19.43;53.94;98616.08;;;;-45
2019/11/02 05:56:21;;;;;;;1.51;1.41;;;;;;;19.45;53.92;98614.34;;;;-46
2019/11/02 05:59:21;;;;;;;1.50;1.40;;;;;;;19.46;53.94;98618.71;;;;-46
2019/11/02 06:02:21;;;;;;;1.51;1.41;;;;;;;19.46;53.92;98617.97;;;;-46
2019/11/02 06:05:21;;;;;;;1.45;1.35;;;;;;;19.47;53.95;98616.45;;;;-45
2019/11/02 06:08:21;;;;;;;1.40;1.30;;;;;;;19.47;53.97;98610.69;;;;-46
2019/11/02 06:11:21;;;;;;;1.44;1.34;;;;;;;19.48;53.93;98609.88;;;;-46
2019/11/02 06:14:21;;;;;;;1.27;1.23;;;;;;;19.49;53.94;98608.88;;;;-46
2019/11/02 06:17:21;;;;;;;1.42;1.32;;;;;;;19.49;53.95;98607.64;;;;-45
2019/11/02 06:20:21;;;;;;;1.57;1.44;;;;;;;19.50;54.03;98604.70;;;;-48
2019/11/02 06:23:21;;;;;;;1.53;1.43;;;;;;;19.53;54.19;98601.81;;;;-48
2019/11/02 06:26:21;;;;;;;2.89;1.51;;;;;;;19.54;54.18;98603.59;;;;-47
2019/11/02 06:29:22;;;;;;;1.45;1.35;;;;;;;19.57;54.13;98597.95;;;;-47
2019/11/02 06:32:21;;;;;;;1.49;1.39;;;;;;;19.59;54.09;98604.17;;;;-48
2019/11/02 06:35:21;;;;;;;1.55;1.41;;;;;;;19.62;54.04;98600.44;;;;-50
2019/11/02 06:38:21;;;;;;;1.62;1.49;;;;;;;19.63;54.03;98600.61;;;;-51
2019/11/02 06:41:21;;;;;;;2.91;1.39;;;;;;;19.64;54.06;98599.62;;;;-51
2019/11/02 06:44:21;;;;;;;1.53;1.43;;;;;;;19.66;54.02;98608.09;;;;-51
2019/11/02 06:47:21;;;;;;;2.28;1.32;;;;;;;19.68;54.00;98604.34;;;;-49
2019/11/02 06:50:21;;;;;;;1.40;1.30;;;;;;;19.68;53.99;98605.30;;;;-52
2019/11/02 06:53:21;;;;;;;1.48;1.38;;;;;;;19.70;53.95;98605.04;;;;-49
2019/11/02 06:56:21;;;;;;;1.42;1.32;;;;;;;19.70;54.04;98603.15;;;;-57
2019/11/02 06:59:21;;;;;;;1.57;1.47;;;;;;;19.72;53.98;98604.56;;;;-57
2019/11/02 07:02:21;;;;;;;2.98;1.35;;;;;;;19.70;53.96;98606.21;;;;-56
2019/11/02 07:05:21;;;;;;;1.41;1.31;;;;;;;19.69;53.96;98609.04;;;;-57
2019/11/02 07:08:21;;;;;;;1.70;1.39;;;;;;;19.67;53.93;98601.68;;;;-57
2019/11/02 07:11:21;;;;;;;1.50;1.40;;;;;;;19.65;53.94;98603.48;;;;-56
2019/11/02 07:14:21;;;;;;;1.59;1.40;;;;;;;19.65;53.95;98607.50;;;;-57
2019/11/02 07:17:21;;;;;;;2.77;1.41;;;;;;;19.64;53.97;98608.49;;;;-57
2019/11/02 07:20:21;;;;;;;1.48;1.24;;;;;;;19.64;53.92;98607.56;;;;-56
2019/11/02 07:23:21;;;;;;;1.43;1.30;;;;;;;19.64;53.95;98611.34;;;;-57
2019/11/02 07:26:21;;;;;;;1.30;1.20;;;;;;;19.63;53.90;98612.73;;;;-57
2019/11/02 07:29:21;;;;;;;1.47;1.37;;;;;;;19.62;53.91;98612.15;;;;-57
2019/11/02 07:32:21;;;;;;;1.59;1.40;;;;;;;19.63;53.92;98613.91;;;;-57
2019/11/02 07:35:21;;;;;;;1.37;1.27;;;;;;;19.62;53.86;98616.17;;;;-57
2019/11/02 07:38:21;;;;;;;1.33;1.23;;;;;;;19.62;53.88;98615.67;;;;-57
2019/11/02 07:41:21;;;;;;;1.52;1.41;;;;;;;19.61;53.86;98615.75;;;;-49
2019/11/02 07:44:21;;;;;;;1.31;1.21;;;;;;;19.61;53.87;98611.03;;;;-49
2019/11/02 07:47:21;;;;;;;1.40;1.30;;;;;;;19.60;53.87;98618.91;;;;-50
2019/11/02 07:50:21;;;;;;;1.40;1.30;;;;;;;19.60;53.83;98619.92;;;;-51
2019/11/02 07:53:21;;;;;;;1.40;1.30;;;;;;;19.60;53.88;98617.14;;;;-50
2019/11/02 07:56:21;;;;;;;1.40;1.30;;;;;;;19.60;53.82;98613.30;;;;-49
2019/11/02 07:59:21;;;;;;;1.40;1.30;;;;;;;19.60;53.85;98620.67;;;;-49
2019/11/02 08:02:21;;;;;;;1.42;1.30;;;;;;;19.60;53.82;98622.67;;;;-49
2019/11/02 08:05:21;;;;;;;1.40;1.30;;;;;;;19.59;53.87;98619.08;;;;-49
2019/11/02 08:08:21;;;;;;;1.62;1.30;;;;;;;19.59;53.81;98627.19;;;;-49
2019/11/02 08:11:21;;;;;;;1.34;1.24;;;;;;;19.58;53.84;98623.07;;;;-49
2019/11/02 08:14:21;;;;;;;2.52;1.33;;;;;;;19.61;53.98;98629.12;;;;-50
2019/11/02 08:17:21;;;;;;;1.95;1.20;;;;;;;19.61;54.02;98633.56;;;;-48
2019/11/02 08:20:21;;;;;;;1.61;1.35;;;;;;;19.63;54.24;98638.12;;;;-46
2019/11/02 08:23:21;;;;;;;1.45;1.34;;;;;;;19.64;54.27;98637.73;;;;-48
2019/11/02 08:26:21;;;;;;;1.43;1.31;;;;;;;19.67;54.33;98637.24;;;;-48
2019/11/02 08:29:21;;;;;;;2.18;1.30;;;;;;;19.68;54.26;98630.41;;;;-55
2019/11/02 08:32:21;;;;;;;1.49;1.30;;;;;;;19.70;54.25;98637.21;;;;-48
2019/11/02 08:35:21;;;;;;;1.43;1.31;;;;;;;19.69;54.29;98631.44;;;;-48
2019/11/02 08:38:21;;;;;;;1.47;1.29;;;;;;;19.70;54.37;98638.89;;;;-48
2019/11/02 08:41:21;;;;;;;1.71;1.31;;;;;;;19.70;54.23;98639.89;;;;-49
2019/11/02 08:44:21;;;;;;;3.90;1.30;;;;;;;19.69;54.18;98640.81;;;;-48
2019/11/02 08:47:21;;;;;;;1.40;1.30;;;;;;;19.69;54.11;98635.95;;;;-49
2019/11/02 08:50:21;;;;;;;1.28;1.18;;;;;;;19.70;54.12;98638.29;;;;-48
2019/11/02 08:53:21;;;;;;;1.68;1.33;;;;;;;19.70;54.07;98639.22;;;;-48
2019/11/02 08:56:21;;;;;;;1.43;1.21;;;;;;;19.71;54.08;98638.38;;;;-48
2019/11/02 08:59:21;;;;;;;1.49;1.30;;;;;;;19.71;54.02;98639.55;;;;-48
2019/11/02 09:02:21;;;;;;;1.30;1.20;;;;;;;19.70;54.00;98638.48;;;;-48
2019/11/02 09:05:21;;;;;;;5.80;1.53;;;;;;;19.71;54.16;98638.14;;;;-50
2019/11/02 09:08:21;;;;;;;1.49;1.21;;;;;;;19.70;54.21;98639.16;;;;-45
2019/11/02 09:11:21;;;;;;;2.73;1.19;;;;;;;19.73;54.34;98635.16;;;;-48
2019/11/02 09:14:21;;;;;;;2.89;1.39;;;;;;;19.74;54.31;98627.82;;;;-45
2019/11/02 09:17:21;;;;;;;3.06;1.29;;;;;;;19.75;54.22;98633.70;;;;-49
2019/11/02 09:20:21;;;;;;;1.53;1.30;;;;;;;19.77;54.20;98641.07;;;;-49
2019/11/02 09:23:21;;;;;;;1.41;1.30;;;;;;;19.78;54.13;98633.20;;;;-49
2019/11/02 09:26:21;;;;;;;1.45;1.31;;;;;;;19.81;54.04;98629.73;;;;-49
2019/11/02 09:29:21;;;;;;;2.33;1.23;;;;;;;19.83;54.02;98626.23;;;;-49
2019/11/02 09:32:21;;;;;;;1.20;1.10;;;;;;;19.86;54.05;98621.94;;;;-49
2019/11/02 09:35:21;;;;;;;1.86;1.33;;;;;;;19.87;53.98;98626.22;;;;-49
2019/11/02 09:38:22;;;;;;;1.89;1.20;;;;;;;19.91;54.00;98631.55;;;;-49
2019/11/02 09:41:21;;;;;;;1.32;1.20;;;;;;;19.93;54.02;98620.92;;;;-50
2019/11/02 09:44:21;;;;;;;3.41;1.44;;;;;;;19.98;54.34;98625.63;;;;-50
2019/11/02 09:47:21;;;;;;;1.15;1.09;;;;;;;20.01;54.40;98624.67;;;;-49
2019/11/02 09:50:21;;;;;;;2.57;1.30;;;;;;;20.05;54.33;98629.41;;;;-58
2019/11/02 09:53:21;;;;;;;2.09;1.25;;;;;;;20.09;54.21;98623.73;;;;-50
2019/11/02 09:56:21;;;;;;;1.83;1.29;;;;;;;20.13;54.30;98624.05;;;;-51
2019/11/02 09:59:21;;;;;;;1.31;1.14;;;;;;;20.17;54.58;98620.48;;;;-50
2019/11/02 10:02:21;;;;;;;1.46;1.36;;;;;;;20.21;54.15;98628.08;;;;-51
2019/11/02 10:05:21;;;;;;;1.89;1.31;;;;;;;20.25;54.24;98632.29;;;;-48
2019/11/02 10:08:21;;;;;;;1.48;1.18;;;;;;;20.28;54.20;98628.75;;;;-50
2019/11/02 10:11:21;;;;;;;2.29;1.39;;;;;;;20.32;54.45;98629.69;;;;-50
2019/11/02 10:14:21;;;;;;;1.30;1.20;;;;;;;20.34;54.25;98636.85;;;;-49
2019/11/02 10:17:21;;;;;;;1.88;1.23;;;;;;;20.37;54.28;98640.74;;;;-51
2019/11/02 10:20:21;;;;;;;1.67;1.24;;;;;;;20.39;54.18;98637.16;;;;-52
2019/11/02 10:23:21;;;;;;;2.21;1.30;;;;;;;20.44;54.97;98637.53;;;;-53
2019/11/02 10:26:21;;;;;;;2.41;1.23;;;;;;;20.46;54.40;98635.98;;;;-48
2019/11/02 10:29:21;;;;;;;1.45;1.20;;;;;;;20.49;54.78;98635.66;;;;-49
2019/11/02 10:32:21;;;;;;;4.26;1.40;;;;;;;20.53;54.85;98632.94;;;;-50
2019/11/02 10:35:21;;;;;;;5.02;1.40;;;;;;;20.53;54.53;98623.98;;;;-54
2019/11/02 10:38:21;;;;;;;4.42;1.32;;;;;;;20.55;54.67;98628.94;;;;-56
2019/11/02 10:41:21;;;;;;;1.63;1.20;;;;;;;20.57;54.48;98626.78;;;;-57
2019/11/02 10:44:21;;;;;;;1.10;1.00;;;;;;;20.59;54.40;98632.67;;;;-57
2019/11/02 10:47:21;;;;;;;1.58;1.26;;;;;;;20.61;54.79;98627.14;;;;-49
2019/11/02 10:50:21;;;;;;;5.57;1.21;;;;;;;20.63;54.44;98620.14;;;;-50
2019/11/02 10:53:21;;;;;;;1.97;1.29;;;;;;;20.66;54.71;98624.77;;;;-51
2019/11/02 10:56:21;;;;;;;1.53;1.21;;;;;;;20.67;54.80;98624.20;;;;-50
2019/11/02 10:59:21;;;;;;;2.89;1.34;;;;;;;20.70;54.70;98621.63;;;;-51
2019/11/02 11:02:21;;;;;;;2.20;1.10;;;;;;;20.73;54.61;98621.82;;;;-49
2019/11/02 11:05:21;;;;;;;2.58;1.20;;;;;;;20.73;54.52;98613.43;;;;-52
2019/11/02 11:08:21;;;;;;;2.25;1.20;;;;;;;20.75;54.44;98614.45;;;;-48
2019/11/02 11:11:21;;;;;;;1.56;1.11;;;;;;;20.77;54.80;98613.72;;;;-47
2019/11/02 11:14:21;;;;;;;1.37;1.07;;;;;;;20.78;54.30;98611.89;;;;-48
2019/11/02 11:17:22;;;;;;;2.01;1.24;;;;;;;20.79;53.98;98606.84;;;;-50
2019/11/02 11:20:30;;;;;;;1.45;1.13;;;;;;;20.80;54.28;98600.87;;;;-51
2019/11/02 11:23:21;;;;;;;2.77;1.20;;;;;;;20.83;54.13;98598.77;;;;-48
2019/11/02 11:26:21;;;;;;;1.40;1.24;;;;;;;20.84;54.05;98600.89;;;;-50
2019/11/02 11:29:21;;;;;;;1.23;1.09;;;;;;;20.85;54.08;98597.95;;;;-50
2019/11/02 11:32:21;;;;;;;1.31;1.19;;;;;;;20.86;54.00;98592.02;;;;-49
2019/11/02 11:35:21;;;;;;;2.71;1.27;;;;;;;20.90;54.14;98591.45;;;;-49
2019/11/02 11:38:21;;;;;;;2.01;1.12;;;;;;;20.89;54.11;98582.81;;;;-49
2019/11/02 11:41:21;;;;;;;1.71;1.10;;;;;;;20.89;53.78;98577.03;;;;-49
2019/11/02 11:44:21;;;;;;;1.30;1.01;;;;;;;20.90;53.96;98580.97;;;;-50
2019/11/02 11:47:21;;;;;;;2.99;1.22;;;;;;;20.90;53.88;98579.56;;;;-49
2019/11/02 11:50:21;;;;;;;1.49;1.30;;;;;;;20.91;53.89;98572.33;;;;-50
2019/11/02 11:53:21;;;;;;;1.33;1.23;;;;;;;20.91;53.91;98570.98;;;;-49
2019/11/02 11:56:21;;;;;;;1.63;1.10;;;;;;;20.90;53.58;98567.20;;;;-49
2019/11/02 11:59:21;;;;;;;1.43;1.12;;;;;;;20.91;53.70;98566.13;;;;-50
2019/11/02 12:02:21;;;;;;;2.60;1.35;;;;;;;20.89;53.83;98568.87;;;;-52
2019/11/02 12:05:21;;;;;;;2.38;1.42;;;;;;;20.92;53.72;98573.44;;;;-52
2019/11/02 12:08:21;;;;;;;2.81;1.13;;;;;;;20.92;53.68;98573.44;;;;-51
2019/11/02 12:11:21;;;;;;;1.59;1.23;;;;;;;20.93;53.56;98566.31;;;;-52
2019/11/02 12:14:21;;;;;;;1.20;1.10;;;;;;;20.93;53.55;98564.05;;;;-51
2019/11/02 12:17:21;;;;;;;2.12;1.00;;;;;;;20.92;53.51;98561.52;;;;-52
2019/11/02 12:20:21;;;;;;;1.16;1.09;;;;;;;20.92;53.46;98562.35;;;;-52
2019/11/02 12:23:21;;;;;;;1.98;1.10;;;;;;;20.92;53.48;98553.96;;;;-52
2019/11/02 12:26:37;;;;;;;1.99;1.29;;;;;;;20.94;53.53;98550.47;;;;-51
2019/11/02 12:29:23;;;;;;;1.33;1.17;;;;;;;20.94;53.46;98549.30;;;;-51
2019/11/02 12:32:21;;;;;;;1.93;1.20;;;;;;;20.94;53.40;98556.84;;;;-51
2019/11/02 12:35:21;;;;;;;1.23;1.13;;;;;;;20.94;53.38;98549.88;;;;-51
2019/11/02 12:38:21;;;;;;;1.73;1.20;;;;;;;20.96;53.71;98551.65;;;;-48
2019/11/02 12:41:21;;;;;;;1.96;1.40;;;;;;;20.95;53.45;98553.22;;;;-53
2019/11/02 12:44:21;;;;;;;2.00;1.21;;;;;;;20.96;53.50;98549.88;;;;-51
2019/11/02 12:47:21;;;;;;;7.63;1.36;;;;;;;21.01;53.76;98552.43;;;;-51
2019/11/02 12:50:21;;;;;;;3.85;1.39;;;;;;;21.01;53.88;98544.56;;;;-51
2019/11/02 12:53:21;;;;;;;2.70;1.30;;;;;;;21.02;53.86;98547.52;;;;-51
2019/11/02 12:56:21;;;;;;;4.86;1.30;;;;;;;21.04;54.19;98554.20;;;;-51
2019/11/02 12:59:21;;;;;;;2.01;1.11;;;;;;;21.05;54.10;98556.42;;;;-51
2019/11/02 13:02:21;;;;;;;4.19;1.20;;;;;;;21.06;54.03;98553.81;;;;-51
2019/11/02 13:05:21;;;;;;;1.85;1.29;;;;;;;21.07;54.21;98553.00;;;;-52
2019/11/02 13:08:21;;;;;;;2.79;1.17;;;;;;;21.09;54.20;98556.95;;;;-51
2019/11/02 13:11:21;;;;;;;3.21;1.32;;;;;;;21.10;54.04;98551.08;;;;-50
2019/11/02 13:14:21;;;;;;;2.36;1.31;;;;;;;21.11;53.79;98544.95;;;;-53
2019/11/02 13:17:21;;;;;;;1.53;1.10;;;;;;;21.12;53.93;98532.62;;;;-51
2019/11/02 13:20:21;;;;;;;1.67;1.17;;;;;;;21.12;53.92;98532.87;;;;-54
2019/11/02 13:23:21;;;;;;;2.84;1.21;;;;;;;21.12;54.16;98516.53;;;;-50
2019/11/02 13:26:21;;;;;;;1.21;1.11;;;;;;;21.13;53.95;98515.02;;;;-51
2019/11/02 13:29:21;;;;;;;1.78;1.20;;;;;;;21.11;53.39;98510.64;;;;-49
2019/11/02 13:32:21;;;;;;;2.40;1.12;;;;;;;21.10;52.97;98503.42;;;;-50
2019/11/02 13:35:21;;;;;;;1.31;1.05;;;;;;;21.08;52.80;98489.23;;;;-53
2019/11/02 13:38:21;;;;;;;4.78;1.27;;;;;;;21.07;52.90;98498.13;;;;-49
2019/11/02 13:41:21;;;;;;;4.31;1.05;;;;;;;21.07;52.66;98493.42;;;;-51
2019/11/02 13:44:21;;;;;;;2.28;1.10;;;;;;;21.09;53.10;98487.90;;;;-51
2019/11/02 13:47:21;;;;;;;5.58;1.15;;;;;;;21.12;53.06;98489.73;;;;-51
2019/11/02 13:50:21;;;;;;;10.23;1.40;;;;;;;21.12;53.16;98490.58;;;;-57
2019/11/02 13:53:21;;;;;;;3.45;1.31;;;;;;;21.11;53.29;98487.38;;;;-61
2019/11/02 13:56:21;;;;;;;4.95;1.37;;;;;;;21.12;53.43;98488.89;;;;-54
2019/11/02 13:59:21;;;;;;;10.03;1.35;;;;;;;21.13;53.30;98484.37;;;;-52
2019/11/02 14:02:21;;;;;;;1.84;1.36;;;;;;;21.12;53.49;98476.13;;;;-51
2019/11/02 14:05:21;;;;;;;2.65;1.25;;;;;;;21.12;53.34;98482.28;;;;-51
2019/11/02 14:08:21;;;;;;;4.25;1.40;;;;;;;21.13;53.41;98472.37;;;;-51
2019/11/02 14:11:21;;;;;;;3.77;1.34;;;;;;;21.14;53.26;98476.50;;;;-51
2019/11/02 14:17:25;;;;;;;3.27;1.19;;;;;;;21.14;53.16;98468.78;;;;-51
2019/11/02 14:20:21;;;;;;;2.22;1.30;;;;;;;21.14;53.23;98472.12;;;;-51
2019/11/02 14:23:21;;;;;;;2.56;1.27;;;;;;;21.13;53.18;98469.59;;;;-51
2019/11/02 14:26:21;;;;;;;2.42;1.20;;;;;;;21.14;53.16;98468.44;;;;-51
2019/11/02 14:29:21;;;;;;;2.16;1.19;;;;;;;21.14;53.23;98467.19;;;;-50
2019/11/02 14:32:21;;;;;;;3.87;1.25;;;;;;;21.14;53.30;98472.20;;;;-51
2019/11/02 14:35:21;;;;;;;1.47;1.19;;;;;;;21.13;53.21;98474.73;;;;-51
2019/11/02 14:38:21;;;;;;;1.93;1.20;;;;;;;21.13;53.26;98473.96;;;;-51
2019/11/02 14:41:21;;;;;;;1.18;1.09;;;;;;;21.14;53.33;98477.84;;;;-51
2019/11/02 14:44:21;;;;;;;1.38;1.12;;;;;;;21.12;53.24;98478.48;;;;-50
2019/11/02 14:47:21;;;;;;;3.23;1.10;;;;;;;21.13;53.25;98467.77;;;;-51
2019/11/02 14:50:21;;;;;;;1.47;1.19;;;;;;;21.13;53.29;98467.09;;;;-51
2019/11/02 14:53:21;;;;;;;1.29;1.09;;;;;;;21.14;53.28;98476.57;;;;-50
2019/11/02 14:56:21;;;;;;;2.71;1.14;;;;;;;21.13;53.31;98468.60;;;;-51
2019/11/02 14:59:21;;;;;;;1.64;1.10;;;;;;;21.12;53.30;98471.38;;;;-51
2019/11/02 15:02:21;;;;;;;1.11;1.01;;;;;;;21.12;53.27;98471.55;;;;-50
2019/11/02 15:05:21;;;;;;;1.24;1.03;;;;;;;21.12;53.39;98471.55;;;;-50
2019/11/02 15:08:21;;;;;;;1.67;1.11;;;;;;;21.12;53.29;98475.73;;;;-50
2019/11/02 15:11:21;;;;;;;3.61;1.03;;;;;;;21.11;53.33;98474.89;;;;-51
2019/11/02 15:14:21;;;;;;;1.11;1.03;;;;;;;21.11;53.30;98478.16;;;;-50
2019/11/02 15:17:21;;;;;;;2.24;1.10;;;;;;;21.10;53.31;98477.33;;;;-51
2019/11/02 15:20:21;;;;;;;1.68;1.20;;;;;;;21.11;53.33;98478.48;;;;-50
2019/11/02 15:23:21;;;;;;;0.99;0.95;;;;;;;21.11;53.38;98477.24;;;;-51
2019/11/02 15:26:21;;;;;;;2.52;1.05;;;;;;;21.11;53.35;98477.82;;;;-51
2019/11/02 15:29:21;;;;;;;1.54;1.09;;;;;;;21.11;53.30;98486.45;;;;-51
2019/11/02 15:32:21;;;;;;;1.23;1.10;;;;;;;21.11;53.35;98480.60;;;;-51
2019/11/02 15:35:21;;;;;;;5.04;1.35;;;;;;;21.12;53.38;98484.36;;;;-50
2019/11/02 15:38:21;;;;;;;1.33;1.05;;;;;;;21.12;53.05;98482.45;;;;-50
2019/11/02 15:41:21;;;;;;;2.41;1.25;;;;;;;21.12;53.05;98480.95;;;;-50
2019/11/02 15:44:21;;;;;;;1.33;1.10;;;;;;;21.13;53.35;98482.19;;;;-56
2019/11/02 15:47:21;;;;;;;1.31;1.05;;;;;;;21.13;52.93;98481.45;;;;-59
2019/11/02 15:50:21;;;;;;;1.49;1.13;;;;;;;21.14;53.27;98471.28;;;;-64
2019/11/02 15:53:21;;;;;;;4.15;1.11;;;;;;;21.15;53.09;98475.06;;;;-59
2019/11/02 15:56:21;;;;;;;1.18;1.08;;;;;;;21.15;53.19;98481.28;;;;-50
2019/11/02 15:59:21;;;;;;;2.65;1.20;;;;;;;21.16;53.10;98469.53;;;;-52
2019/11/02 16:02:21;;;;;;;2.13;1.11;;;;;;;21.15;53.08;98468.59;;;;-52
2019/11/02 16:05:21;;;;;;;2.83;1.10;;;;;;;21.15;52.95;98472.62;;;;-54
2019/11/02 16:08:21;;;;;;;1.78;1.30;;;;;;;21.16;53.10;98480.70;;;;-51
2019/11/02 16:11:21;;;;;;;1.66;1.24;;;;;;;21.17;53.06;98474.32;;;;-50
2019/11/02 16:14:21;;;;;;;1.49;1.20;;;;;;;21.18;53.25;98473.58;;;;-48
2019/11/02 16:17:21;;;;;;;2.46;1.23;;;;;;;21.23;53.25;98460.09;;;;-55
2019/11/02 16:20:21;;;;;;;3.29;1.25;;;;;;;21.25;53.36;98461.95;;;;-50
2019/11/02 16:23:21;;;;;;;2.87;1.29;;;;;;;21.28;53.63;98453.06;;;;-59
2019/11/02 16:26:21;;;;;;;1.25;1.11;;;;;;;21.30;53.50;98444.43;;;;-49
2019/11/02 16:29:21;;;;;;;2.26;1.30;;;;;;;21.32;53.58;98461.80;;;;-49
2019/11/02 16:32:21;;;;;;;1.27;1.17;;;;;;;21.33;53.67;98454.09;;;;-50
2019/11/02 16:35:21;;;;;;;2.99;1.20;;;;;;;21.35;53.67;98461.06;;;;-51
2019/11/02 16:38:21;;;;;;;2.11;1.33;;;;;;;21.37;53.39;98469.13;;;;-50
2019/11/02 16:41:21;;;;;;;7.20;1.39;;;;;;;21.36;53.38;98473.08;;;;-50
2019/11/02 16:44:21;;;;;;;1.49;1.20;;;;;;;21.36;53.34;98466.52;;;;-51
2019/11/02 16:47:21;;;;;;;7.57;1.41;;;;;;;21.36;53.50;98466.02;;;;-52
2019/11/02 16:50:21;;;;;;;1.25;1.08;;;;;;;21.37;53.61;98473.48;;;;-51
2019/11/02 16:53:21;;;;;;;2.17;1.14;;;;;;;21.37;53.65;98477.34;;;;-50
2019/11/02 16:56:21;;;;;;;1.33;1.21;;;;;;;21.38;53.70;98484.73;;;;-51
2019/11/02 16:59:21;;;;;;;2.07;1.27;;;;;;;21.38;53.75;98488.20;;;;-53